Acosta, Pennsylvania
Current Conditions -  °F | °C
As of 12:35 AM on Saturday 20 Dec 2014 (Local Time) from K2G9 Reporting Station
Overcast Overcast  
Wind Chill: -9°   Ceiling: 1800
Heat Index: -5°   Visibility: 10mi
Dew Point: -8°   Wind: 6mph
Humidity: 80%   Direction: 330°NNW
Pressure: 30.16"   Gusts: NA
Location:  40.11°N, 79.07°W
Report Text: K2G9 200535Z AUTO 33005KT 10SM OVC018 M05/M08 A3016 RMK AO2
Loading
Personal Weather Stations






























Interactive Weather Map New forecast layout! Learn more

10-Day Weather Forecast

Advertisements
Track Severe Weather on mobile